Time;durP1;ratioP1;P1;durP2;ratioP2;P2;SDS_P1;SDS_P2;PMS_P1;PMS_P2;Temp;Humidity;BMP_temperature;BMP_pressure;BME280_temperature;BME280_humidity;BME280_pressure;Samples;Min_cycle;Max_cycle;Signal;HPM_P1;HPM_P2
2022/11/28 00:01:50;;;;;;;11.90;9.23;;;5.80;99.90;;;;;;5091510;28;20058;-61
2022/11/28 00:04:18;;;;;;;15.77;9.57;;;5.80;99.90;;;;;;5093749;28;20051;-61
2022/11/28 00:06:48;;;;;;;14.60;8.48;;;5.80;99.90;;;;;;5092895;28;20449;-61
2022/11/28 00:09:16;;;;;;;12.48;8.60;;;5.80;99.90;;;;;;5095196;28;20051;-60
2022/11/28 00:11:44;;;;;;;11.98;8.48;;;5.80;99.90;;;;;;5094583;28;20524;-60
2022/11/28 00:14:12;;;;;;;10.20;8.02;;;5.80;99.90;;;;;;5093302;28;20078;-61
2022/11/28 00:16:39;;;;;;;13.30;8.55;;;5.80;99.90;;;;;;5094773;28;20048;-61
2022/11/28 00:19:07;;;;;;;11.32;8.48;;;5.80;99.90;;;;;;5093998;28;20411;-61
2022/11/28 00:21:35;;;;;;;11.75;7.72;;;5.80;99.90;;;;;;5092337;28;20050;-61
2022/11/28 00:24:03;;;;;;;11.70;7.60;;;5.80;99.90;;;;;;5094600;28;20089;-61
2022/11/28 00:26:32;;;;;;;12.43;8.60;;;5.80;99.90;;;;;;5093748;28;20048;-61
2022/11/28 00:29:00;;;;;;;13.45;8.77;;;5.80;99.90;;;;;;5093247;28;20051;-61
2022/11/28 00:31:29;;;;;;;10.60;7.80;;;5.80;99.90;;;;;;5094307;28;20044;-61
2022/11/28 00:33:56;;;;;;;9.55;7.40;;;5.80;99.90;;;;;;5093262;28;20048;-62
2022/11/28 00:36:24;;;;;;;9.27;6.82;;;5.80;99.90;;;;;;5094027;28;20118;-61
2022/11/28 00:38:52;;;;;;;11.18;7.35;;;5.70;99.90;;;;;;5093569;28;20502;-61
2022/11/28 00:41:21;;;;;;;13.05;7.35;;;5.80;99.90;;;;;;5093800;28;20051;-61
2022/11/28 00:43:49;;;;;;;11.02;6.85;;;5.80;99.90;;;;;;5093897;28;20530;-61
2022/11/28 00:46:17;;;;;;;9.40;6.97;;;5.80;99.90;;;;;;5094638;28;20050;-61
2022/11/28 00:48:45;;;;;;;11.80;7.65;;;5.80;99.90;;;;;;5093874;28;20435;-61
2022/11/28 00:51:15;;;;;;;9.75;6.93;;;5.80;99.90;;;;;;5094157;28;20541;-61
2022/11/28 00:53:43;;;;;;;12.80;6.85;;;5.80;99.90;;;;;;5093917;28;20515;-61
2022/11/28 00:56:13;;;;;;;9.18;6.72;;;5.80;99.90;;;;;;5092178;28;20048;-61
2022/11/28 00:58:41;;;;;;;12.00;6.20;;;5.80;99.90;;;;;;5094154;28;20048;-61
2022/11/28 01:01:09;;;;;;;10.88;7.47;;;5.80;99.90;;;;;;5091813;28;20051;-61
2022/11/28 01:03:37;;;;;;;11.88;6.75;;;5.80;99.90;;;;;;5091386;28;20056;-61
2022/11/28 01:06:04;;;;;;;9.50;7.25;;;5.80;99.90;;;;;;5092187;28;20052;-61
2022/11/28 01:08:31;;;;;;;12.27;6.18;;;5.80;99.90;;;;;;5091656;28;20048;-61
2022/11/28 01:10:58;;;;;;;11.68;6.85;;;5.80;99.90;;;;;;5092164;28;20055;-61
2022/11/28 01:13:26;;;;;;;11.95;6.82;;;5.90;99.90;;;;;;5093509;28;20511;-61
2022/11/28 01:15:53;;;;;;;11.30;6.78;;;5.90;99.90;;;;;;5092667;28;20097;-61
2022/11/28 01:18:20;;;;;;;12.05;6.93;;;5.90;99.90;;;;;;5093217;28;20048;-60
2022/11/28 01:20:47;;;;;;;10.27;6.82;;;5.90;99.90;;;;;;5092258;28;20109;-61
2022/11/28 01:23:14;;;;;;;10.85;6.97;;;5.90;99.90;;;;;;5092436;28;20495;-62
2022/11/28 01:25:41;;;;;;;11.98;7.57;;;5.90;99.90;;;;;;5092826;28;20445;-61
2022/11/28 01:28:08;;;;;;;12.60;7.93;;;6.00;99.90;;;;;;5093777;28;20093;-61
2022/11/28 01:30:36;;;;;;;8.30;6.47;;;5.90;99.90;;;;;;5091365;28;20046;-61
2022/11/28 01:33:03;;;;;;;10.75;6.93;;;5.90;99.90;;;;;;5092301;28;20044;-61
2022/11/28 01:35:30;;;;;;;10.30;6.95;;;6.00;99.90;;;;;;5090047;28;20488;-61
2022/11/28 01:37:56;;;;;;;9.98;7.78;;;6.00;99.90;;;;;;5091338;28;20056;-62
2022/11/28 01:40:23;;;;;;;10.68;7.32;;;6.00;99.90;;;;;;5090932;28;20063;-61
2022/11/28 01:42:50;;;;;;;11.23;7.18;;;6.00;99.90;;;;;;5092401;28;20068;-61
2022/11/28 01:45:21;;;;;;;13.38;6.88;;;6.00;99.90;;;;;;5092513;28;20044;-62
2022/11/28 01:47:51;;;;;;;11.32;7.22;;;6.10;99.90;;;;;;5089873;28;20506;-61
2022/11/28 01:50:20;;;;;;;11.20;7.45;;;6.00;99.90;;;;;;5091934;28;20117;-60
2022/11/28 01:52:52;;;;;;;13.18;7.13;;;6.10;99.90;;;;;;5092344;28;20487;-62
2022/11/28 01:55:23;;;;;;;15.15;7.10;;;6.10;99.90;;;;;;5089609;28;20138;-62
2022/11/28 01:57:52;;;;;;;11.65;7.50;;;6.10;99.90;;;;;;5090467;28;20048;-62
2022/11/28 02:00:21;;;;;;;10.50;7.47;;;6.10;99.90;;;;;;5092261;28;20044;-61
2022/11/28 02:02:52;;;;;;;9.68;6.68;;;6.10;99.90;;;;;;5092759;28;20051;-61
2022/11/28 02:05:21;;;;;;;12.45;7.32;;;6.10;99.90;;;;;;5091618;28;20447;-61
2022/11/28 02:07:50;;;;;;;12.52;8.65;;;6.10;99.90;;;;;;5090915;28;20059;-61
2022/11/28 02:10:23;;;;;;;12.10;8.73;;;6.10;99.90;;;;;;5091816;28;20406;-61
2022/11/28 02:13:13;;;;;;;13.55;9.25;;;6.10;99.90;;;;;;5091932;28;20047;-60
2022/11/28 02:15:54;;;;;;;15.88;8.43;;;6.10;99.90;;;;;;5090178;28;20040;-60
2022/11/28 02:18:36;;;;;;;12.70;8.38;;;6.10;99.90;;;;;;5091285;28;20499;-60
2022/11/28 02:21:21;;;;;;;16.38;9.52;;;6.10;99.90;;;;;;5088892;28;20056;-61
2022/11/28 02:24:20;;;;;;;15.90;9.65;;;6.00;99.90;;;;;;5091070;28;20048;-60
2022/11/28 02:27:14;;;;;;;19.92;9.95;;;6.10;99.90;;;;;;5090065;28;20048;-61
2022/11/28 02:30:07;;;;;;;13.77;9.43;;;6.00;99.90;;;;;;5091458;28;20066;-61
2022/11/28 02:33:07;;;;;;;15.27;9.18;;;6.00;99.90;;;;;;5091913;28;20043;-61
2022/11/28 02:35:42;;;;;;;16.33;10.50;;;6.00;99.90;;;;;;5090023;28;20565;-61
2022/11/28 02:38:18;;;;;;;13.80;10.25;;;6.00;99.90;;;;;;5092380;28;20487;-61
2022/11/28 02:40:51;;;;;;;13.48;10.52;;;6.00;99.90;;;;;;5091404;28;20264;-61
2022/11/28 02:43:28;;;;;;;17.75;11.60;;;6.00;99.90;;;;;;5090792;28;20413;-62
2022/11/28 02:46:02;;;;;;;15.90;11.05;;;6.00;99.90;;;;;;5090178;28;20040;-61
2022/11/28 02:48:38;;;;;;;14.43;11.02;;;6.00;99.90;;;;;;5091730;28;20047;-61
2022/11/28 02:51:11;;;;;;;18.70;11.13;;;6.00;99.90;;;;;;5092595;28;20048;-62
2022/11/28 02:53:38;;;;;;;17.13;11.48;;;6.10;99.90;;;;;;5088908;28;20124;-61
2022/11/28 02:56:06;;;;;;;16.90;11.20;;;6.00;99.90;;;;;;5090507;28;20450;-62
2022/11/28 02:58:33;;;;;;;17.80;12.00;;;6.00;99.90;;;;;;5090084;28;20705;-62
2022/11/28 03:01:00;;;;;;;16.75;11.98;;;6.10;99.90;;;;;;5090617;28;20048;-62
2022/11/28 03:04:08;;;;;;;14.98;10.73;;;6.10;99.90;;;;;;5090167;28;20060;-62
2022/11/28 03:06:49;;;;;;;15.48;11.52;;;6.10;99.90;;;;;;5077286;28;20077;-62
2022/11/28 03:09:37;;;;;;;19.48;11.60;;;6.10;99.90;;;;;;5090410;28;20051;-62
2022/11/28 03:12:16;;;;;;;17.50;11.77;;;6.10;99.90;;;;;;5091196;28;20055;-62
2022/11/28 03:14:51;;;;;;;16.20;11.35;;;6.10;99.90;;;;;;5089835;28;20069;-62
2022/11/28 03:17:27;;;;;;;17.05;11.57;;;6.10;99.90;;;;;;5090358;28;20074;-62
2022/11/28 03:20:03;;;;;;;17.38;12.23;;;6.10;99.90;;;;;;5088922;28;20055;-62
2022/11/28 03:22:38;;;;;;;15.00;10.32;;;6.10;99.90;;;;;;5090767;28;20047;-62
2022/11/28 03:25:12;;;;;;;16.20;11.18;;;6.10;99.90;;;;;;5088535;28;20055;-62
2022/11/28 03:27:45;;;;;;;16.98;11.48;;;6.10;99.90;;;;;;5091152;28;20047;-62
2022/11/28 03:30:18;;;;;;;21.00;12.52;;;6.10;99.90;;;;;;5092425;28;20052;-62
2022/11/28 03:32:48;;;;;;;18.38;11.70;;;6.20;99.90;;;;;;5093962;28;20162;-61
2022/11/28 03:35:18;;;;;;;17.08;12.27;;;6.10;99.90;;;;;;5094546;28;20052;-61
2022/11/28 03:37:49;;;;;;;19.73;11.48;;;6.20;99.90;;;;;;5095237;28;20051;-62
2022/11/28 03:40:22;;;;;;;16.40;11.65;;;6.10;99.90;;;;;;5094551;28;20565;-61
2022/11/28 03:42:54;;;;;;;18.50;12.93;;;6.10;99.90;;;;;;5095161;28;20048;-61
2022/11/28 03:45:25;;;;;;;17.48;12.45;;;6.10;99.90;;;;;;5092010;28;20040;-61
2022/11/28 03:47:57;;;;;;;14.82;12.07;;;6.20;99.90;;;;;;5093413;28;20082;-61
2022/11/28 03:50:31;;;;;;;18.25;12.20;;;6.20;99.90;;;;;;5094095;28;20043;-62
2022/11/28 03:53:03;;;;;;;17.23;12.30;;;6.20;99.90;;;;;;5094644;28;20093;-61
2022/11/28 03:55:36;;;;;;;14.93;11.88;;;6.20;99.90;;;;;;5095245;28;20419;-62
2022/11/28 03:58:10;;;;;;;17.13;12.55;;;6.20;99.90;;;;;;5094095;28;20072;-62
2022/11/28 04:00:45;;;;;;;18.60;13.38;;;6.20;99.90;;;;;;5095039;28;20056;-62
2022/11/28 04:03:19;;;;;;;19.75;13.07;;;6.20;99.90;;;;;;5092739;28;20052;-62
2022/11/28 04:05:53;;;;;;;23.67;14.07;;;6.20;99.90;;;;;;5092098;28;20047;-61
2022/11/28 04:08:27;;;;;;;19.70;13.65;;;6.30;99.90;;;;;;5094234;28;20081;-61
2022/11/28 04:11:01;;;;;;;16.40;13.90;;;6.30;99.90;;;;;;5094063;28;20442;-61
2022/11/28 04:13:32;;;;;;;20.10;13.52;;;6.30;99.90;;;;;;5093447;28;20051;-61
2022/11/28 04:16:05;;;;;;;18.08;13.73;;;6.30;99.90;;;;;;5095109;28;20051;-62
2022/11/28 04:18:41;;;;;;;21.50;14.52;;;6.30;99.90;;;;;;5095090;28;20048;-62
2022/11/28 04:21:14;;;;;;;22.17;15.48;;;6.30;99.90;;;;;;5094317;28;20494;-62
2022/11/28 04:23:45;;;;;;;21.83;15.20;;;6.40;99.90;;;;;;5092191;28;20044;-61
2022/11/28 04:26:16;;;;;;;19.80;15.13;;;6.40;99.90;;;;;;5094792;28;20036;-61
2022/11/28 04:28:46;;;;;;;22.00;15.73;;;6.40;99.90;;;;;;5092305;28;20461;-62
2022/11/28 04:31:15;;;;;;;20.65;14.80;;;6.40;99.90;;;;;;5094785;28;20483;-61
2022/11/28 04:33:47;;;;;;;23.60;16.05;;;6.50;99.90;;;;;;5092984;28;20461;-62
2022/11/28 04:36:17;;;;;;;22.25;16.75;;;6.50;99.90;;;;;;5093756;28;20044;-62
2022/11/28 04:38:54;;;;;;;18.67;15.65;;;6.50;99.90;;;;;;5094154;28;20056;-62
2022/11/28 04:41:26;;;;;;;23.55;15.75;;;6.60;99.90;;;;;;5093578;28;20469;-62
2022/11/28 04:43:59;;;;;;;23.10;17.58;;;6.60;99.90;;;;;;5094171;28;20098;-61
2022/11/28 04:46:31;;;;;;;25.60;16.90;;;6.60;99.90;;;;;;5094283;28;20059;-61
2022/11/28 04:48:58;;;;;;;20.98;16.58;;;6.60;99.90;;;;;;5093891;28;20048;-61
2022/11/28 04:51:31;;;;;;;23.70;17.65;;;6.70;99.90;;;;;;5091260;28;20491;-61
2022/11/28 04:54:04;;;;;;;22.25;16.85;;;6.70;99.90;;;;;;5093100;28;20052;-62
2022/11/28 04:56:37;;;;;;;23.08;18.08;;;6.80;99.90;;;;;;5092717;28;20109;-61
2022/11/28 04:59:06;;;;;;;20.27;16.55;;;6.70;99.90;;;;;;5094153;28;20051;-61
2022/11/28 05:01:34;;;;;;;22.95;17.38;;;6.80;99.90;;;;;;5092738;28;20056;-62
2022/11/28 05:04:01;;;;;;;22.92;17.55;;;6.80;99.90;;;;;;5092907;28;20353;-62
2022/11/28 05:06:30;;;;;;;23.85;17.30;;;6.80;99.90;;;;;;5093170;28;20055;-62
2022/11/28 05:08:59;;;;;;;21.70;16.73;;;6.80;99.90;;;;;;5092429;28;20052;-62
2022/11/28 05:11:26;;;;;;;23.70;17.42;;;6.80;99.90;;;;;;5091980;28;20389;-62
2022/11/28 05:13:54;;;;;;;23.50;16.98;;;6.90;99.90;;;;;;5091646;28;20054;-62
2022/11/28 05:16:21;;;;;;;21.10;16.63;;;6.80;99.90;;;;;;5091238;28;20044;-61
2022/11/28 05:18:48;;;;;;;21.35;15.75;;;6.90;99.90;;;;;;5091417;28;20125;-62
2022/11/28 05:21:15;;;;;;;20.73;15.45;;;6.90;99.90;;;;;;5093882;28;20048;-61
2022/11/28 05:23:44;;;;;;;23.63;16.20;;;6.90;99.90;;;;;;5091940;28;20440;-62
2022/11/28 05:26:14;;;;;;;20.05;16.10;;;7.00;99.90;;;;;;5093063;28;20434;-61
2022/11/28 05:28:43;;;;;;;26.07;15.53;;;7.00;99.90;;;;;;5090312;28;20051;-61
2022/11/28 05:31:11;;;;;;;20.17;15.10;;;7.00;99.90;;;;;;5091455;28;20078;-61
2022/11/28 05:33:38;;;;;;;21.48;15.45;;;7.00;99.90;;;;;;5090581;28;20048;-61
2022/11/28 05:36:06;;;;;;;21.25;15.30;;;7.00;99.90;;;;;;5093320;28;20062;-62
2022/11/28 05:38:34;;;;;;;20.95;15.77;;;7.00;99.90;;;;;;5092728;28;20101;-61
2022/11/28 05:41:01;;;;;;;19.85;15.48;;;7.10;99.90;;;;;;5093538;28;20407;-61
2022/11/28 05:43:30;;;;;;;17.73;13.85;;;7.10;99.90;;;;;;5091662;28;20055;-61
2022/11/28 05:45:57;;;;;;;19.38;14.65;;;7.10;99.90;;;;;;5092463;28;20044;-62
2022/11/28 05:48:24;;;;;;;18.80;14.25;;;7.10;99.90;;;;;;5093045;28;20075;-61
2022/11/28 05:50:51;;;;;;;22.50;15.80;;;7.10;99.90;;;;;;5091581;28;20056;-61
2022/11/28 05:53:19;;;;;;;20.58;14.88;;;7.10;99.90;;;;;;5091427;28;20055;-61
2022/11/28 05:55:47;;;;;;;20.77;14.93;;;7.10;99.90;;;;;;5093025;28;20040;-62
2022/11/28 05:58:14;;;;;;;19.75;14.18;;;7.10;99.90;;;;;;5091436;28;20101;-61
2022/11/28 06:00:42;;;;;;;16.95;14.25;;;7.20;99.90;;;;;;5089582;28;20052;-61
2022/11/28 06:03:09;;;;;;;19.60;13.88;;;7.10;99.90;;;;;;5076487;28;20066;-61
2022/11/28 06:05:39;;;;;;;19.67;13.57;;;7.20;99.90;;;;;;5080391;28;20052;-61
2022/11/28 06:08:06;;;;;;;17.65;13.65;;;7.20;99.90;;;;;;5085510;28;20048;-61
2022/11/28 06:10:33;;;;;;;20.30;14.85;;;7.20;99.90;;;;;;5090019;28;20056;-61
2022/11/28 06:13:01;;;;;;;20.35;14.30;;;7.20;99.90;;;;;;5081921;28;20094;-61
2022/11/28 06:15:29;;;;;;;17.25;13.20;;;7.20;99.90;;;;;;5085898;28;20158;-60
2022/11/28 06:17:57;;;;;;;17.77;13.30;;;7.30;99.90;;;;;;5088145;28;20487;-61
2022/11/28 06:20:24;;;;;;;20.17;13.18;;;7.30;99.90;;;;;;5087619;28;20059;-61
2022/11/28 06:22:51;;;;;;;16.58;13.02;;;7.30;99.90;;;;;;5087797;28;20044;-61
2022/11/28 06:25:18;;;;;;;19.67;13.50;;;7.30;99.90;;;;;;5078360;28;20059;-61
2022/11/28 06:27:45;;;;;;;19.48;13.65;;;7.30;99.90;;;;;;5084451;28;20048;-61
2022/11/28 06:30:12;;;;;;;19.67;14.18;;;7.30;99.90;;;;;;5080826;28;20047;-61
2022/11/28 06:32:39;;;;;;;18.45;12.93;;;7.30;99.90;;;;;;5082659;28;20109;-61
2022/11/28 06:35:08;;;;;;;18.40;13.32;;;7.30;99.90;;;;;;5079749;28;20051;-62
2022/11/28 06:37:35;;;;;;;19.90;15.13;;;7.30;99.90;;;;;;5085306;28;20110;-61
2022/11/28 06:40:02;;;;;;;18.00;13.95;;;7.40;99.90;;;;;;5084652;28;20048;-61
2022/11/28 06:42:29;;;;;;;19.27;13.77;;;7.40;99.90;;;;;;5088635;28;20461;-61
2022/11/28 06:44:56;;;;;;;17.45;12.35;;;7.40;99.90;;;;;;5087641;28;20059;-61
2022/11/28 06:47:23;;;;;;;20.95;13.52;;;7.40;99.90;;;;;;5080592;28;20841;-62
2022/11/28 06:49:49;;;;;;;17.88;11.70;;;7.40;99.90;;;;;;5086695;28;20051;-61
2022/11/28 06:52:18;;;;;;;16.38;11.77;;;7.40;99.90;;;;;;5083301;28;20545;-62
2022/11/28 06:54:45;;;;;;;16.08;11.95;;;7.40;99.90;;;;;;5079699;28;20052;-62
2022/11/28 06:57:12;;;;;;;16.15;12.00;;;7.40;99.90;;;;;;5083835;28;20495;-62
2022/11/28 06:59:39;;;;;;;16.67;11.98;;;7.40;99.90;;;;;;5080373;28;20135;-62
2022/11/28 07:02:06;;;;;;;16.63;11.20;;;7.50;99.90;;;;;;5086141;28;20044;-61
2022/11/28 07:04:33;;;;;;;16.80;11.18;;;7.40;99.90;;;;;;5091935;28;20508;-61
2022/11/28 07:07:00;;;;;;;14.48;11.27;;;7.40;99.90;;;;;;5091005;28;20048;-61
2022/11/28 07:09:28;;;;;;;16.17;10.18;;;7.50;99.90;;;;;;5094431;28;20092;-62
2022/11/28 07:11:55;;;;;;;13.52;9.93;;;7.40;99.90;;;;;;5093326;28;20441;-62
2022/11/28 07:14:22;;;;;;;12.75;9.70;;;7.50;99.90;;;;;;5085861;28;20134;-62
2022/11/28 07:16:49;;;;;;;11.95;9.82;;;7.50;99.90;;;;;;5089721;28;20040;-62
2022/11/28 07:19:21;;;;;;;11.25;8.93;;;7.50;99.90;;;;;;5086504;28;20511;-62
2022/11/28 07:21:48;;;;;;;12.70;9.18;;;7.50;99.90;;;;;;5091363;28;20056;-63
2022/11/28 07:24:15;;;;;;;13.00;9.32;;;7.50;99.90;;;;;;5086541;28;20055;-62
2022/11/28 07:26:44;;;;;;;13.95;10.48;;;7.50;99.90;;;;;;5087138;28;20487;-63
2022/11/28 07:29:14;;;;;;;13.20;9.90;;;7.50;99.90;;;;;;5087107;28;20476;-62
2022/11/28 07:31:41;;;;;;;14.32;9.57;;;7.50;99.90;;;;;;5096383;28;20044;-62
2022/11/28 07:34:09;;;;;;;12.13;10.10;;;7.70;99.90;;;;;;5092055;28;20101;-62
2022/11/28 07:36:36;;;;;;;11.75;8.80;;;7.70;99.90;;;;;;5086396;28;20040;-62
2022/11/28 07:39:07;;;;;;;12.23;9.18;;;7.60;99.90;;;;;;5086475;28;20048;-61
2022/11/28 07:41:34;;;;;;;12.45;8.02;;;7.60;99.90;;;;;;5084684;28;20057;-62
2022/11/28 07:44:03;;;;;;;11.23;8.23;;;7.60;99.90;;;;;;5086106;28;20056;-62
2022/11/28 07:46:31;;;;;;;13.23;8.88;;;7.60;99.90;;;;;;5092223;28;20044;-62
2022/11/28 07:48:59;;;;;;;11.32;8.75;;;7.60;99.90;;;;;;5092412;28;20049;-62
2022/11/28 07:51:28;;;;;;;13.95;9.73;;;7.60;99.90;;;;;;5090463;28;20054;-62
2022/11/28 07:53:56;;;;;;;12.48;9.27;;;7.60;99.90;;;;;;5090931;28;20048;-62
2022/11/28 07:56:24;;;;;;;11.77;9.82;;;7.60;99.90;;;;;;5093113;28;20051;-61
2022/11/28 07:58:52;;;;;;;11.65;9.35;;;7.50;99.90;;;;;;5092268;28;20044;-62
2022/11/28 08:01:22;;;;;;;10.35;7.35;;;7.60;99.90;;;;;;5087199;28;20052;-62
2022/11/28 08:03:49;;;;;;;14.50;9.38;;;7.60;99.90;;;;;;5090202;28;20455;-62
2022/11/28 08:06:18;;;;;;;13.90;9.52;;;7.60;99.90;;;;;;5085323;28;20045;-62
2022/11/28 08:08:46;;;;;;;12.02;9.60;;;7.60;99.90;;;;;;5091735;28;20113;-62
2022/11/28 08:11:14;;;;;;;10.95;9.40;;;7.50;99.90;;;;;;5085182;28;20560;-62
2022/11/28 08:13:41;;;;;;;11.30;9.40;;;7.60;99.90;;;;;;5083280;28;20067;-62
2022/11/28 08:16:12;;;;;;;13.98;10.32;;;7.60;99.90;;;;;;5081357;28;20454;-62
2022/11/28 08:18:40;;;;;;;;;;;7.60;99.90;;;;;;5088531;28;20044;-62
2022/11/28 08:21:10;;;;;;;13.70;9.85;;;7.60;99.90;;;;;;5079961;28;19927;-62
2022/11/28 08:23:38;;;;;;;13.57;9.23;;;7.60;99.90;;;;;;5089633;28;20044;-61
2022/11/28 08:26:07;;;;;;;15.40;10.32;;;7.60;99.90;;;;;;5087949;28;20040;-61
2022/11/28 08:28:34;;;;;;;12.48;10.52;;;7.60;99.90;;;;;;5087162;28;20047;-61
2022/11/28 08:31:09;;;;;;;14.30;10.45;;;7.60;99.90;;;;;;5093958;28;20204;-61
2022/11/28 08:33:36;;;;;;;17.20;11.25;;;7.60;99.90;;;;;;5093593;28;20052;-61
2022/11/28 08:36:05;;;;;;;14.15;10.55;;;7.60;99.90;;;;;;5091543;28;20044;-61
2022/11/28 08:38:32;;;;;;;13.77;10.50;;;7.70;99.90;;;;;;5092298;28;20060;-61
2022/11/28 08:41:03;;;;;;;12.15;9.32;;;7.60;99.90;;;;;;5092457;28;20040;-61
2022/11/28 08:43:30;;;;;;;14.07;10.20;;;7.70;99.90;;;;;;5094036;28;20408;-61
2022/11/28 08:45:57;;;;;;;13.57;10.23;;;7.70;99.90;;;;;;5093429;28;20507;-61
2022/11/28 08:48:24;;;;;;;13.02;9.50;;;7.70;99.90;;;;;;5090572;28;20397;-61
2022/11/28 08:50:51;;;;;;;11.57;9.25;;;7.70;99.90;;;;;;5093795;28;20048;-62
2022/11/28 08:53:20;;;;;;;10.75;8.38;;;7.70;99.90;;;;;;5092855;28;20488;-62
2022/11/28 08:55:47;;;;;;;12.57;9.38;;;7.70;99.90;;;;;;5092403;28;20052;-61
2022/11/28 08:58:15;;;;;;;13.20;8.85;;;7.70;99.90;;;;;;5093776;28;20051;-61
2022/11/28 09:00:42;;;;;;;12.27;9.23;;;7.70;99.90;;;;;;5093684;28;20519;-61
2022/11/28 09:03:14;;;;;;;13.18;9.00;;;7.70;99.90;;;;;;5093498;28;20139;-62
2022/11/28 09:05:41;;;;;;;12.15;8.55;;;7.70;99.90;;;;;;5093485;28;20174;-61
2022/11/28 09:08:09;;;;;;;13.75;9.77;;;7.70;99.90;;;;;;5085481;28;20047;-60
2022/11/28 09:10:39;;;;;;;10.55;8.50;;;7.80;99.90;;;;;;5078697;28;20064;-60
2022/11/28 09:13:06;;;;;;;11.93;8.48;;;7.80;99.90;;;;;;5085390;28;20048;-60
2022/11/28 09:15:33;;;;;;;10.85;8.05;;;7.70;99.90;;;;;;5084376;28;20044;-61
2022/11/28 09:18:00;;;;;;;10.45;8.13;;;7.80;99.90;;;;;;5087390;28;20044;-61
2022/11/28 09:20:27;;;;;;;10.88;8.43;;;7.70;99.90;;;;;;5087631;28;20395;-60
2022/11/28 09:22:54;;;;;;;10.15;7.35;;;7.70;99.90;;;;;;5084795;28;20090;-60
2022/11/28 09:25:21;;;;;;;11.38;8.18;;;7.80;99.90;;;;;;5086448;28;20052;-60
2022/11/28 09:27:49;;;;;;;9.93;7.60;;;7.80;99.90;;;;;;5092236;28;20101;-59
2022/11/28 09:30:16;;;;;;;11.20;7.72;;;7.80;99.90;;;;;;5084825;28;20051;-60
2022/11/28 09:32:47;;;;;;;8.68;7.10;;;7.80;99.90;;;;;;5082571;28;20087;-60
2022/11/28 09:35:14;;;;;;;9.52;6.93;;;7.80;99.90;;;;;;5084172;28;20101;-60
2022/11/28 09:37:41;;;;;;;9.50;7.20;;;7.80;99.90;;;;;;5091795;28;20525;-60
2022/11/28 09:40:15;;;;;;;15.38;7.85;;;7.80;99.90;;;;;;5085328;28;20076;-59
2022/11/28 09:42:44;;;;;;;8.13;6.72;;;7.80;99.90;;;;;;5087387;28;20461;-60
2022/11/28 09:45:16;;;;;;;7.22;5.90;;;7.80;99.90;;;;;;5090171;28;20048;-60
2022/11/28 09:47:47;;;;;;;7.85;6.03;;;7.90;99.90;;;;;;5086762;28;20080;-60
2022/11/28 09:50:15;;;;;;;8.18;6.68;;;7.90;99.90;;;;;;5085930;28;20049;-65
2022/11/28 09:52:49;;;;;;;8.27;6.00;;;7.90;99.90;;;;;;5085126;28;20044;-62
2022/11/28 09:55:22;;;;;;;9.82;6.18;;;7.90;99.90;;;;;;5086245;28;20048;-64
2022/11/28 09:57:51;;;;;;;10.23;5.63;;;7.90;99.90;;;;;;5084984;28;20395;-60
2022/11/28 10:00:21;;;;;;;8.52;5.72;;;7.90;99.90;;;;;;5086362;28;20044;-60
2022/11/28 10:03:07;;;;;;;8.68;6.35;;;8.00;99.90;;;;;;5087514;28;20052;-61
2022/11/28 10:05:37;;;;;;;7.35;5.85;;;7.90;99.90;;;;;;5086529;28;20446;-60
2022/11/28 10:08:22;;;;;;;9.75;5.80;;;8.00;99.90;;;;;;5087086;28;20044;-60
2022/11/28 10:10:57;;;;;;;7.30;5.95;;;8.00;99.90;;;;;;5087724;28;20062;-60
2022/11/28 10:13:30;;;;;;;7.22;5.70;;;8.00;99.90;;;;;;5083665;28;20052;-61
2022/11/28 10:16:05;;;;;;;7.32;5.80;;;8.00;99.90;;;;;;5085680;28;20057;-60
2022/11/28 10:18:37;;;;;;;7.38;5.40;;;8.00;99.90;;;;;;5080211;28;20116;-60
2022/11/28 10:21:15;;;;;;;9.27;5.60;;;8.00;99.90;;;;;;5091260;28;20458;-61
2022/11/28 10:23:45;;;;;;;7.95;5.97;;;8.00;99.90;;;;;;5087855;28;20043;-61
2022/11/28 10:26:18;;;;;;;7.65;5.75;;;8.00;99.90;;;;;;5084071;28;20040;-60
2022/11/28 10:28:50;;;;;;;6.63;5.38;;;8.00;99.90;;;;;;5084113;28;20445;-60
2022/11/28 10:31:25;;;;;;;8.18;5.85;;;8.00;99.90;;;;;;5083997;28;20055;-66
2022/11/28 10:33:57;;;;;;;6.32;5.72;;;8.10;99.90;;;;;;5084448;28;20495;-60
2022/11/28 10:36:28;;;;;;;7.68;5.68;;;8.10;99.90;;;;;;5086112;28;20045;-71
2022/11/28 10:38:55;;;;;;;9.13;5.75;;;8.10;99.90;;;;;;5089082;28;20051;-60
2022/11/28 10:41:31;;;;;;;8.18;5.60;;;8.10;99.90;;;;;;5084000;28;20048;-60
2022/11/28 10:44:05;;;;;;;7.88;5.93;;;8.10;99.90;;;;;;5082518;28;20056;-59
2022/11/28 10:46:55;;;;;;;7.95;5.95;;;8.10;99.90;;;;;;5082993;28;20054;-60
2022/11/28 10:49:34;;;;;;;8.13;6.00;;;8.20;99.90;;;;;;5087132;28;20442;-60
2022/11/28 10:52:11;;;;;;;8.05;5.82;;;8.10;99.90;;;;;;5086436;28;20551;-60
2022/11/28 10:55:00;;;;;;;7.70;5.75;;;8.20;99.90;;;;;;5086279;28;20136;-61
2022/11/28 10:57:31;;;;;;;8.05;6.07;;;8.20;99.90;;;;;;5086668;28;20048;-59
2022/11/28 11:00:07;;;;;;;7.93;5.50;;;8.30;99.90;;;;;;5088791;28;20101;-63
2022/11/28 11:02:38;;;;;;;8.63;5.93;;;8.30;99.90;;;;;;5085206;28;20055;-60
2022/11/28 11:05:06;;;;;;;8.98;6.38;;;8.30;99.90;;;;;;5082372;28;20089;-60
2022/11/28 11:07:34;;;;;;;7.70;5.72;;;8.30;99.90;;;;;;5084276;28;20143;-60
2022/11/28 11:10:13;;;;;;;7.15;5.32;;;8.40;99.90;;;;;;5088416;28;20041;-60
2022/11/28 11:12:40;;;;;;;8.13;5.68;;;8.40;99.90;;;;;;5082709;28;20091;-60
2022/11/28 11:15:20;;;;;;;7.05;5.38;;;8.40;99.90;;;;;;5085199;28;20090;-60
2022/11/28 11:17:50;;;;;;;6.80;5.05;;;8.50;99.90;;;;;;5082788;28;20041;-60
2022/11/28 11:20:28;;;;;;;6.97;5.22;;;8.50;99.90;;;;;;5084127;28;20136;-60
2022/11/28 11:22:56;;;;;;;7.65;5.47;;;8.50;99.90;;;;;;5086397;28;20048;-60
2022/11/28 11:25:25;;;;;;;6.65;4.93;;;8.50;99.90;;;;;;5084689;28;20055;-60
2022/11/28 11:27:53;;;;;;;8.95;5.88;;;8.60;99.90;;;;;;5083199;28;20051;-60
2022/11/28 11:30:26;;;;;;;6.50;5.13;;;8.60;99.90;;;;;;5083815;28;20081;-60
2022/11/28 11:32:55;;;;;;;7.32;5.03;;;8.60;99.90;;;;;;5086277;28;20105;-60
2022/11/28 11:35:24;;;;;;;6.18;4.85;;;8.70;99.90;;;;;;5082669;28;20097;-60
2022/11/28 11:37:51;;;;;;;6.20;5.00;;;8.70;99.90;;;;;;5087395;28;20540;-60
2022/11/28 11:40:24;;;;;;;6.95;5.47;;;8.70;99.90;;;;;;5085148;28;20076;-60
2022/11/28 11:42:54;;;;;;;6.93;5.47;;;8.80;99.90;;;;;;5086216;28;20071;-60
2022/11/28 11:45:30;;;;;;;6.97;5.00;;;8.80;99.90;;;;;;5084339;28;20079;-59
2022/11/28 11:47:59;;;;;;;6.75;5.38;;;8.80;99.90;;;;;;5085053;28;20044;-60
2022/11/28 11:50:28;;;;;;;11.15;5.45;;;8.80;99.90;;;;;;5096514;28;20047;-60
2022/11/28 11:53:04;;;;;;;8.48;5.68;;;8.90;99.90;;;;;;5091793;28;20047;-60
2022/11/28 11:55:32;;;;;;;8.73;5.47;;;9.00;99.90;;;;;;5091345;28;20495;-60
2022/11/28 11:58:03;;;;;;;8.60;5.55;;;9.00;99.90;;;;;;5090462;28;20537;-60
2022/11/28 12:00:36;;;;;;;7.97;5.70;;;8.90;99.90;;;;;;5094610;28;20049;-60
2022/11/28 12:03:12;;;;;;;9.25;5.65;;;8.90;99.90;;;;;;5089718;28;20044;-60
2022/11/28 12:05:48;;;;;;;11.02;5.65;;;9.00;99.90;;;;;;5085297;28;20048;-60
2022/11/28 12:08:19;;;;;;;8.73;5.60;;;8.90;99.90;;;;;;5090640;28;20040;-67
2022/11/28 12:10:50;;;;;;;7.78;5.70;;;9.00;99.90;;;;;;5087717;28;20484;-60
2022/11/28 12:13:19;;;;;;;9.57;5.30;;;9.00;99.90;;;;;;5085770;28;20052;-60
2022/11/28 12:15:55;;;;;;;8.85;5.93;;;9.00;99.90;;;;;;5084054;28;20555;-60
2022/11/28 12:18:30;;;;;;;8.13;5.85;;;9.00;99.90;;;;;;5093412;28;20044;-60
2022/11/28 12:21:09;;;;;;;9.10;5.85;;;9.00;99.90;;;;;;5083016;28;20056;-60
2022/11/28 12:24:12;;;;;;;8.77;6.10;;;9.20;99.90;;;;;;5085320;28;20369;-60
2022/11/28 12:26:46;;;;;;;8.60;6.43;;;9.00;99.90;;;;;;5085268;28;20087;-60
2022/11/28 12:29:28;;;;;;;8.88;6.20;;;9.10;99.90;;;;;;5084217;28;20496;-60
2022/11/28 12:32:05;;;;;;;8.88;6.43;;;9.00;99.90;;;;;;5092465;28;21301;-60
2022/11/28 12:34:44;;;;;;;10.95;7.30;;;9.10;99.90;;;;;;5093253;28;20048;-60
2022/11/28 12:37:20;;;;;;;9.77;7.00;;;9.10;99.90;;;;;;5081442;28;20059;-60
2022/11/28 12:40:00;;;;;;;9.88;6.60;;;9.10;99.90;;;;;;5087129;28;20044;-60
2022/11/28 12:42:39;;;;;;;8.02;6.00;;;9.10;99.90;;;;;;5086450;28;20047;-60
2022/11/28 12:45:36;;;;;;;7.22;5.40;;;9.10;99.90;;;;;;5089965;28;20043;-60
2022/11/28 12:48:16;;;;;;;7.90;5.80;;;9.10;99.90;;;;;;5052641;28;20051;-60
2022/11/28 12:50:47;;;;;;;7.88;5.97;;;9.10;99.90;;;;;;5087117;28;20446;-60
2022/11/28 12:53:42;;;;;;;6.60;4.80;;;9.20;99.90;;;;;;5086234;28;20077;-60
2022/11/28 12:56:30;;;;;;;7.50;5.53;;;9.20;99.90;;;;;;5085957;28;20047;-61
2022/11/28 12:59:02;;;;;;;8.40;5.10;;;9.10;99.90;;;;;;5087476;28;20097;-60
2022/11/28 13:01:41;;;;;;;10.70;5.47;;;9.10;99.90;;;;;;5086258;28;20055;-60
2022/11/28 13:04:25;;;;;;;6.35;5.18;;;9.00;99.90;;;;;;5083981;28;20052;-60
2022/11/28 13:07:03;;;;;;;7.25;5.30;;;9.10;99.90;;;;;;5081806;28;20059;-60